INFORMACIÓN METAR y TAF
METAR FOR LFBO
ADDS - METARS form results

(0716 UTC 15 April 2021)
Data provider http://aviationweather.gov/metar/data/
 
METAR text: LFBO 150700Z AUTO 04003KT 350V110 CAVOK 07/M02 Q1021 NOSIG
Conditions at: LFBO (TOULOUSE/BLAGNAC, FR) observed 0700 UTC 15 April 2021
Temperature: 7.0°C (45°F)
Dewpoint: -2.0°C (28°F) [RH = 53%]
Pressure (altimeter): 30.15 inches Hg (1021.0 mb)
Winds: from the NE (40 degrees) at 3 MPH (3 knots; 1.5 m/s)
Visibility: 6 or more miles (10+ km)
Ceiling: ceiling and visibility are OK
Clouds: unknown
Weather: no significant weather observed at this time

METAR text: LFBO 150630Z AUTO VRB02KT CAVOK 05/M01 Q1021 NOSIG
Conditions at: LFBO (TOULOUSE/BLAGNAC, FR) observed 0630 UTC 15 April 2021
Temperature: 5.0°C (41°F)
Dewpoint: -1.0°C (30°F) [RH = 65%]
Pressure (altimeter): 30.15 inches Hg (1021.0 mb)
Winds: variable direction winds at 2 MPH (2 knots; 1.0 m/s)
Visibility: 6 or more miles (10+ km)
Ceiling: ceiling and visibility are OK
Clouds: unknown
Weather: no significant weather observed at this time

Forecast for: LFBO (TOULOUSE/BLAGNAC, FR)
Text: TAF LFBO 150500Z 1506/1612 34005KT CAVOK
Forecast period: 0600 UTC 15 April 2021 to 1200 UTC 16 April 2021
Forecast type: FROM: standard forecast or significant change
Winds: from the NNW (340 degrees) at 6 MPH (5 knots; 2.6 m/s)
Visibility: 6 or more miles (10+ km)
Ceiling: unknown
Clouds: missing
Weather: NSW  (no significant weather)

 MAPA DE AEROPUERTO

 INFORMACIÓN DE PISTA
Pista 14L Longitud 9843 ft Ancho 148 ft
Elevación 490 ft Umbral desplazado 0 ft Rumbo de pista 143
Pista 32R Longitud 9843 ft Ancho 148 ft
Elevación 497 ft Umbral desplazado 0 ft Rumbo de pista 323
Pista 14R Longitud 11483 ft Ancho 148 ft
Elevación 488 ft Umbral desplazado 0 ft Rumbo de pista 143
Pista 32L Longitud 11483 ft Ancho 148 ft
Elevación 497 ft Umbral desplazado 0 ft Rumbo de pista 323

 FRECUANCIAS DEL AEROPUERTO
Tipo AFIS Nombre TOULOUSE I Frecuencia 121.25 MHZ
Tipo APP Nombre APP Frecuencia 121.1 MHZ
Tipo APP Nombre TOULOUSE A Frecuencia 125.175 MHZ
Tipo ATIS Nombre ATIS Frecuencia 123.125 MHZ
Tipo CLD Nombre CLNC DEL Frecuencia 121.7 MHZ
Tipo GND Nombre GND Frecuencia 121.9 MHZ
Tipo TWR Nombre TWR Frecuencia 118.1 MHZ

 RADIO AYUDAS DEL AEROPUERTO
Tipo NDB Nombre Toulouse Frecuencia 415 KHZ
Tipo VOR-DME Nombre Toulouse Frecuencia 117700 KHZ
Tipo NDB Nombre Toulouse Frecuencia 423 KHZ
Tipo NDB Nombre Toulouse Frecuencia 406 KHZ



Powered by Virtual Airlines Manager [v2.6.2]